sensor_id;sensor_type;location;lat;lon;timestamp;P1;durP1;ratioP1;P2;durP2;ratioP2
77612;SDS011;66777;52.282;5.960;2023-05-20T00:00:15;46.72;;;44.35;;
77612;SDS011;66777;52.282;5.960;2023-05-20T00:02:41;48.58;;;46.13;;
77612;SDS011;66777;52.282;5.960;2023-05-20T00:05:06;41.55;;;39.35;;
77612;SDS011;66777;52.282;5.960;2023-05-20T00:07:32;43.10;;;40.92;;
77612;SDS011;66777;52.282;5.960;2023-05-20T00:09:58;44.28;;;42.10;;
77612;SDS011;66777;52.282;5.960;2023-05-20T00:12:23;41.20;;;39.20;;
77612;SDS011;66777;52.282;5.960;2023-05-20T00:14:49;46.58;;;44.35;;
77612;SDS011;66777;52.282;5.960;2023-05-20T00:17:15;47.47;;;45.28;;
77612;SDS011;66777;52.282;5.960;2023-05-20T00:19:41;30.90;;;29.17;;
77612;SDS011;66777;52.282;5.960;2023-05-20T00:22:07;45.78;;;43.60;;
77612;SDS011;66777;52.282;5.960;2023-05-20T00:24:32;42.90;;;40.78;;
77612;SDS011;66777;52.282;5.960;2023-05-20T00:26:58;48.45;;;45.92;;
77612;SDS011;66777;52.282;5.960;2023-05-20T00:29:23;44.63;;;42.63;;
77612;SDS011;66777;52.282;5.960;2023-05-20T00:31:49;45.42;;;42.97;;
77612;SDS011;66777;52.282;5.960;2023-05-20T00:34:15;47.22;;;44.78;;
77612;SDS011;66777;52.282;5.960;2023-05-20T00:36:40;33.78;;;31.90;;
77612;SDS011;66777;52.282;5.960;2023-05-20T00:39:07;44.40;;;42.25;;
77612;SDS011;66777;52.282;5.960;2023-05-20T00:41:32;46.00;;;43.58;;
77612;SDS011;66777;52.282;5.960;2023-05-20T00:43:58;31.50;;;29.55;;
77612;SDS011;66777;52.282;5.960;2023-05-20T00:46:23;29.55;;;27.65;;
77612;SDS011;66777;52.282;5.960;2023-05-20T00:48:52;46.45;;;44.13;;
77612;SDS011;66777;52.282;5.960;2023-05-20T00:51:17;33.25;;;31.27;;
77612;SDS011;66777;52.282;5.960;2023-05-20T00:53:44;44.65;;;42.55;;
77612;SDS011;66777;52.282;5.960;2023-05-20T00:56:10;44.42;;;42.38;;
77612;SDS011;66777;52.282;5.960;2023-05-20T00:58:36;32.47;;;30.48;;
77612;SDS011;66777;52.282;5.960;2023-05-20T01:01:03;44.40;;;42.17;;
77612;SDS011;66777;52.282;5.960;2023-05-20T01:03:29;42.15;;;40.08;;
77612;SDS011;66777;52.282;5.960;2023-05-20T01:05:54;31.33;;;29.52;;
77612;SDS011;66777;52.282;5.960;2023-05-20T01:08:20;49.63;;;47.38;;
77612;SDS011;66777;52.282;5.960;2023-05-20T01:10:49;38.00;;;35.90;;
77612;SDS011;66777;52.282;5.960;2023-05-20T01:13:19;28.83;;;27.20;;
77612;SDS011;66777;52.282;5.960;2023-05-20T01:15:47;32.03;;;30.27;;
77612;SDS011;66777;52.282;5.960;2023-05-20T01:18:14;45.08;;;42.53;;
77612;SDS011;66777;52.282;5.960;2023-05-20T01:20:48;45.15;;;42.95;;
77612;SDS011;66777;52.282;5.960;2023-05-20T01:23:15;45.22;;;42.88;;
77612;SDS011;66777;52.282;5.960;2023-05-20T01:25:41;43.65;;;41.15;;
77612;SDS011;66777;52.282;5.960;2023-05-20T01:28:06;45.67;;;43.33;;
77612;SDS011;66777;52.282;5.960;2023-05-20T01:30:34;44.03;;;41.83;;
77612;SDS011;66777;52.282;5.960;2023-05-20T01:33:04;43.65;;;41.30;;
77612;SDS011;66777;52.282;5.960;2023-05-20T01:35:34;45.03;;;42.58;;
77612;SDS011;66777;52.282;5.960;2023-05-20T01:38:00;42.00;;;39.78;;
77612;SDS011;66777;52.282;5.960;2023-05-20T01:40:29;42.35;;;39.83;;
77612;SDS011;66777;52.282;5.960;2023-05-20T01:42:55;32.72;;;30.67;;
77612;SDS011;66777;52.282;5.960;2023-05-20T01:45:23;42.97;;;40.78;;
77612;SDS011;66777;52.282;5.960;2023-05-20T01:47:49;40.53;;;38.25;;
77612;SDS011;66777;52.282;5.960;2023-05-20T01:50:15;47.63;;;45.13;;
77612;SDS011;66777;52.282;5.960;2023-05-20T01:52:41;33.03;;;30.92;;
77612;SDS011;66777;52.282;5.960;2023-05-20T01:55:07;44.20;;;41.67;;
77612;SDS011;66777;52.282;5.960;2023-05-20T01:57:33;30.48;;;28.63;;
77612;SDS011;66777;52.282;5.960;2023-05-20T01:59:58;43.88;;;41.60;;
77612;SDS011;66777;52.282;5.960;2023-05-20T02:02:24;31.38;;;29.30;;
77612;SDS011;66777;52.282;5.960;2023-05-20T02:04:50;40.58;;;38.35;;
77612;SDS011;66777;52.282;5.960;2023-05-20T02:07:17;42.15;;;40.03;;
77612;SDS011;66777;52.282;5.960;2023-05-20T02:09:43;37.53;;;35.28;;
77612;SDS011;66777;52.282;5.960;2023-05-20T02:12:09;32.85;;;30.90;;
77612;SDS011;66777;52.282;5.960;2023-05-20T02:14:40;43.15;;;40.78;;
77612;SDS011;66777;52.282;5.960;2023-05-20T02:17:09;41.55;;;39.15;;
77612;SDS011;66777;52.282;5.960;2023-05-20T02:19:35;39.90;;;37.67;;
77612;SDS011;66777;52.282;5.960;2023-05-20T02:22:00;40.72;;;38.47;;
77612;SDS011;66777;52.282;5.960;2023-05-20T02:24:26;34.17;;;32.08;;
77612;SDS011;66777;52.282;5.960;2023-05-20T02:26:51;45.25;;;42.83;;
77612;SDS011;66777;52.282;5.960;2023-05-20T02:29:18;43.88;;;41.63;;
77612;SDS011;66777;52.282;5.960;2023-05-20T02:31:46;40.47;;;37.92;;
77612;SDS011;66777;52.282;5.960;2023-05-20T02:34:12;30.75;;;28.90;;
77612;SDS011;66777;52.282;5.960;2023-05-20T02:36:39;47.17;;;44.67;;
77612;SDS011;66777;52.282;5.960;2023-05-20T02:39:05;42.20;;;39.92;;
77612;SDS011;66777;52.282;5.960;2023-05-20T02:41:31;40.92;;;38.72;;
77612;SDS011;66777;52.282;5.960;2023-05-20T02:43:56;31.23;;;29.10;;
77612;SDS011;66777;52.282;5.960;2023-05-20T02:46:22;43.08;;;40.53;;
77612;SDS011;66777;52.282;5.960;2023-05-20T02:48:47;44.63;;;41.95;;
77612;SDS011;66777;52.282;5.960;2023-05-20T02:51:13;38.15;;;36.17;;
77612;SDS011;66777;52.282;5.960;2023-05-20T02:53:38;31.13;;;29.05;;
77612;SDS011;66777;52.282;5.960;2023-05-20T02:56:04;40.88;;;38.88;;
77612;SDS011;66777;52.282;5.960;2023-05-20T02:58:30;43.08;;;40.17;;
77612;SDS011;66777;52.282;5.960;2023-05-20T03:00:57;29.48;;;27.48;;
77612;SDS011;66777;52.282;5.960;2023-05-20T03:03:23;41.83;;;39.65;;
77612;SDS011;66777;52.282;5.960;2023-05-20T03:05:50;44.13;;;41.90;;
77612;SDS011;66777;52.282;5.960;2023-05-20T03:08:17;43.92;;;41.70;;
77612;SDS011;66777;52.282;5.960;2023-05-20T03:10:44;41.90;;;39.72;;
77612;SDS011;66777;52.282;5.960;2023-05-20T03:13:09;30.90;;;28.88;;
77612;SDS011;66777;52.282;5.960;2023-05-20T03:15:38;28.15;;;26.55;;
77612;SDS011;66777;52.282;5.960;2023-05-20T03:18:05;44.47;;;41.80;;
77612;SDS011;66777;52.282;5.960;2023-05-20T03:20:32;39.13;;;36.80;;
77612;SDS011;66777;52.282;5.960;2023-05-20T03:23:00;41.25;;;38.88;;
77612;SDS011;66777;52.282;5.960;2023-05-20T03:25:26;43.80;;;41.50;;
77612;SDS011;66777;52.282;5.960;2023-05-20T03:27:52;42.33;;;39.90;;
77612;SDS011;66777;52.282;5.960;2023-05-20T03:30:18;41.58;;;39.28;;
77612;SDS011;66777;52.282;5.960;2023-05-20T03:32:44;38.67;;;36.38;;
77612;SDS011;66777;52.282;5.960;2023-05-20T03:35:09;40.95;;;38.45;;
77612;SDS011;66777;52.282;5.960;2023-05-20T03:37:35;47.58;;;44.85;;
77612;SDS011;66777;52.282;5.960;2023-05-20T03:40:01;42.95;;;40.47;;
77612;SDS011;66777;52.282;5.960;2023-05-20T03:42:30;42.65;;;40.25;;
77612;SDS011;66777;52.282;5.960;2023-05-20T03:44:58;29.20;;;27.20;;
77612;SDS011;66777;52.282;5.960;2023-05-20T03:47:24;39.83;;;37.50;;
77612;SDS011;66777;52.282;5.960;2023-05-20T03:49:50;40.47;;;38.10;;
77612;SDS011;66777;52.282;5.960;2023-05-20T03:52:16;39.55;;;37.03;;
77612;SDS011;66777;52.282;5.960;2023-05-20T03:54:42;40.67;;;38.55;;
77612;SDS011;66777;52.282;5.960;2023-05-20T03:57:07;43.00;;;40.75;;
77612;SDS011;66777;52.282;5.960;2023-05-20T03:59:34;41.10;;;38.90;;
77612;SDS011;66777;52.282;5.960;2023-05-20T04:02:00;35.75;;;33.58;;
77612;SDS011;66777;52.282;5.960;2023-05-20T04:04:26;31.25;;;29.35;;
77612;SDS011;66777;52.282;5.960;2023-05-20T04:06:52;43.65;;;41.22;;
77612;SDS011;66777;52.282;5.960;2023-05-20T04:09:20;39.90;;;37.42;;
77612;SDS011;66777;52.282;5.960;2023-05-20T04:11:46;39.55;;;37.33;;
77612;SDS011;66777;52.282;5.960;2023-05-20T04:14:11;32.15;;;30.15;;
77612;SDS011;66777;52.282;5.960;2023-05-20T04:16:37;32.88;;;30.83;;
77612;SDS011;66777;52.282;5.960;2023-05-20T04:19:03;36.97;;;34.65;;
77612;SDS011;66777;52.282;5.960;2023-05-20T04:21:28;43.30;;;41.00;;
77612;SDS011;66777;52.282;5.960;2023-05-20T04:23:55;27.27;;;25.48;;
77612;SDS011;66777;52.282;5.960;2023-05-20T04:26:21;28.88;;;26.92;;
77612;SDS011;66777;52.282;5.960;2023-05-20T04:28:46;38.88;;;36.88;;
77612;SDS011;66777;52.282;5.960;2023-05-20T04:31:15;38.03;;;36.08;;
77612;SDS011;66777;52.282;5.960;2023-05-20T04:33:41;43.75;;;41.33;;
77612;SDS011;66777;52.282;5.960;2023-05-20T04:36:08;38.45;;;36.47;;
77612;SDS011;66777;52.282;5.960;2023-05-20T04:38:36;43.22;;;40.70;;
77612;SDS011;66777;52.282;5.960;2023-05-20T04:41:02;31.48;;;29.42;;
77612;SDS011;66777;52.282;5.960;2023-05-20T04:43:28;40.88;;;38.47;;
77612;SDS011;66777;52.282;5.960;2023-05-20T04:45:54;41.65;;;39.40;;
77612;SDS011;66777;52.282;5.960;2023-05-20T04:48:20;37.67;;;35.58;;
77612;SDS011;66777;52.282;5.960;2023-05-20T04:50:46;43.63;;;41.17;;
77612;SDS011;66777;52.282;5.960;2023-05-20T04:53:19;45.75;;;43.35;;
77612;SDS011;66777;52.282;5.960;2023-05-20T04:55:45;41.20;;;38.95;;
77612;SDS011;66777;52.282;5.960;2023-05-20T04:58:11;40.33;;;38.00;;
77612;SDS011;66777;52.282;5.960;2023-05-20T05:00:41;31.50;;;29.55;;
77612;SDS011;66777;52.282;5.960;2023-05-20T05:03:07;40.70;;;38.60;;
77612;SDS011;66777;52.282;5.960;2023-05-20T05:05:33;39.20;;;37.15;;
77612;SDS011;66777;52.282;5.960;2023-05-20T05:08:01;41.55;;;39.13;;
77612;SDS011;66777;52.282;5.960;2023-05-20T05:10:27;41.08;;;39.03;;
77612;SDS011;66777;52.282;5.960;2023-05-20T05:12:53;43.75;;;41.63;;
77612;SDS011;66777;52.282;5.960;2023-05-20T05:15:18;38.97;;;36.83;;
77612;SDS011;66777;52.282;5.960;2023-05-20T05:17:44;42.95;;;40.70;;
77612;SDS011;66777;52.282;5.960;2023-05-20T05:20:10;49.25;;;46.45;;
77612;SDS011;66777;52.282;5.960;2023-05-20T05:22:35;46.15;;;43.75;;
77612;SDS011;66777;52.282;5.960;2023-05-20T05:25:03;43.58;;;41.17;;
77612;SDS011;66777;52.282;5.960;2023-05-20T05:27:29;42.33;;;39.90;;
77612;SDS011;66777;52.282;5.960;2023-05-20T05:29:55;44.17;;;42.08;;
77612;SDS011;66777;52.282;5.960;2023-05-20T05:32:20;43.53;;;41.47;;
77612;SDS011;66777;52.282;5.960;2023-05-20T05:34:46;47.42;;;45.08;;
77612;SDS011;66777;52.282;5.960;2023-05-20T05:37:11;46.20;;;44.00;;
77612;SDS011;66777;52.282;5.960;2023-05-20T05:39:37;46.80;;;44.50;;
77612;SDS011;66777;52.282;5.960;2023-05-20T05:42:03;46.30;;;44.10;;
77612;SDS011;66777;52.282;5.960;2023-05-20T05:44:28;48.38;;;46.08;;
77612;SDS011;66777;52.282;5.960;2023-05-20T05:46:54;47.65;;;45.08;;
77612;SDS011;66777;52.282;5.960;2023-05-20T05:49:20;49.95;;;47.60;;
77612;SDS011;66777;52.282;5.960;2023-05-20T05:51:45;38.05;;;36.15;;
77612;SDS011;66777;52.282;5.960;2023-05-20T05:54:11;48.33;;;46.20;;
77612;SDS011;66777;52.282;5.960;2023-05-20T05:56:36;50.65;;;48.55;;
77612;SDS011;66777;52.282;5.960;2023-05-20T05:59:02;51.33;;;49.13;;
77612;SDS011;66777;52.282;5.960;2023-05-20T06:01:28;46.53;;;44.38;;
77612;SDS011;66777;52.282;5.960;2023-05-20T06:03:54;50.30;;;48.13;;
77612;SDS011;66777;52.282;5.960;2023-05-20T06:06:20;34.70;;;32.85;;
77612;SDS011;66777;52.282;5.960;2023-05-20T06:08:45;51.60;;;49.13;;
77612;SDS011;66777;52.282;5.960;2023-05-20T06:11:11;51.30;;;49.17;;
77612;SDS011;66777;52.282;5.960;2023-05-20T06:13:37;34.92;;;33.08;;
77612;SDS011;66777;52.282;5.960;2023-05-20T06:16:02;51.08;;;48.88;;
77612;SDS011;66777;52.282;5.960;2023-05-20T06:18:28;49.40;;;47.20;;
77612;SDS011;66777;52.282;5.960;2023-05-20T06:20:54;34.55;;;32.70;;
77612;SDS011;66777;52.282;5.960;2023-05-20T06:23:20;52.80;;;50.55;;
77612;SDS011;66777;52.282;5.960;2023-05-20T06:25:46;55.92;;;53.42;;
77612;SDS011;66777;52.282;5.960;2023-05-20T06:28:12;55.13;;;52.92;;
77612;SDS011;66777;52.282;5.960;2023-05-20T06:30:38;57.20;;;54.83;;
77612;SDS011;66777;52.282;5.960;2023-05-20T06:33:04;61.97;;;59.63;;
77612;SDS011;66777;52.282;5.960;2023-05-20T06:35:30;54.25;;;51.78;;
77612;SDS011;66777;52.282;5.960;2023-05-20T06:37:58;57.15;;;54.67;;
77612;SDS011;66777;52.282;5.960;2023-05-20T06:40:25;54.38;;;52.13;;
77612;SDS011;66777;52.282;5.960;2023-05-20T06:42:51;57.65;;;55.40;;
77612;SDS011;66777;52.282;5.960;2023-05-20T06:45:17;59.40;;;56.90;;
77612;SDS011;66777;52.282;5.960;2023-05-20T06:47:42;61.05;;;58.65;;
77612;SDS011;66777;52.282;5.960;2023-05-20T06:50:09;43.88;;;41.90;;
77612;SDS011;66777;52.282;5.960;2023-05-20T06:52:35;60.83;;;58.38;;
77612;SDS011;66777;52.282;5.960;2023-05-20T06:55:04;43.75;;;41.85;;
77612;SDS011;66777;52.282;5.960;2023-05-20T06:57:30;44.88;;;42.88;;
77612;SDS011;66777;52.282;5.960;2023-05-20T06:59:55;61.33;;;58.67;;
77612;SDS011;66777;52.282;5.960;2023-05-20T07:02:21;68.05;;;65.45;;
77612;SDS011;66777;52.282;5.960;2023-05-20T07:04:47;61.33;;;58.72;;
77612;SDS011;66777;52.282;5.960;2023-05-20T07:07:13;70.63;;;67.93;;
77612;SDS011;66777;52.282;5.960;2023-05-20T07:09:39;71.18;;;68.45;;
77612;SDS011;66777;52.282;5.960;2023-05-20T07:12:05;71.68;;;68.97;;
77612;SDS011;66777;52.282;5.960;2023-05-20T07:14:31;71.90;;;69.20;;
77612;SDS011;66777;52.282;5.960;2023-05-20T07:16:57;75.95;;;73.18;;
77612;SDS011;66777;52.282;5.960;2023-05-20T07:19:22;74.32;;;71.38;;
77612;SDS011;66777;52.282;5.960;2023-05-20T07:21:48;72.20;;;69.47;;
77612;SDS011;66777;52.282;5.960;2023-05-20T07:24:14;83.82;;;80.97;;
77612;SDS011;66777;52.282;5.960;2023-05-20T07:26:41;82.60;;;79.47;;
77612;SDS011;66777;52.282;5.960;2023-05-20T07:29:06;78.20;;;75.40;;
77612;SDS011;66777;52.282;5.960;2023-05-20T07:31:34;76.57;;;73.78;;
77612;SDS011;66777;52.282;5.960;2023-05-20T07:34:00;80.95;;;76.30;;
77612;SDS011;66777;52.282;5.960;2023-05-20T07:36:26;82.65;;;79.40;;
77612;SDS011;66777;52.282;5.960;2023-05-20T07:38:52;83.80;;;80.65;;
77612;SDS011;66777;52.282;5.960;2023-05-20T07:41:18;87.22;;;84.25;;
77612;SDS011;66777;52.282;5.960;2023-05-20T07:43:44;84.72;;;81.75;;
77612;SDS011;66777;52.282;5.960;2023-05-20T07:46:11;61.95;;;59.45;;
77612;SDS011;66777;52.282;5.960;2023-05-20T07:48:36;88.10;;;84.90;;
77612;SDS011;66777;52.282;5.960;2023-05-20T07:51:02;97.32;;;93.97;;
77612;SDS011;66777;52.282;5.960;2023-05-20T07:53:28;92.82;;;89.68;;
77612;SDS011;66777;52.282;5.960;2023-05-20T07:55:54;98.55;;;95.18;;
77612;SDS011;66777;52.282;5.960;2023-05-20T07:58:20;67.60;;;65.00;;
77612;SDS011;66777;52.282;5.960;2023-05-20T08:00:46;104.10;;;100.53;;
77612;SDS011;66777;52.282;5.960;2023-05-20T08:03:12;100.75;;;97.35;;
77612;SDS011;66777;52.282;5.960;2023-05-20T08:05:39;104.97;;;101.38;;
77612;SDS011;66777;52.282;5.960;2023-05-20T08:08:05;103.00;;;99.50;;
77612;SDS011;66777;52.282;5.960;2023-05-20T08:10:31;101.18;;;97.88;;
77612;SDS011;66777;52.282;5.960;2023-05-20T08:12:57;104.35;;;100.80;;
77612;SDS011;66777;52.282;5.960;2023-05-20T08:15:22;97.97;;;94.68;;
77612;SDS011;66777;52.282;5.960;2023-05-20T08:17:48;102.38;;;99.00;;
77612;SDS011;66777;52.282;5.960;2023-05-20T08:20:13;102.32;;;98.78;;
77612;SDS011;66777;52.282;5.960;2023-05-20T08:22:39;106.95;;;103.38;;
77612;SDS011;66777;52.282;5.960;2023-05-20T08:25:08;113.93;;;109.88;;
77612;SDS011;66777;52.282;5.960;2023-05-20T08:27:34;106.10;;;102.47;;
77612;SDS011;66777;52.282;5.960;2023-05-20T08:30:01;110.90;;;107.28;;
77612;SDS011;66777;52.282;5.960;2023-05-20T08:32:28;107.78;;;104.20;;
77612;SDS011;66777;52.282;5.960;2023-05-20T08:34:53;81.47;;;78.57;;
77612;SDS011;66777;52.282;5.960;2023-05-20T08:37:19;109.20;;;105.60;;
77612;SDS011;66777;52.282;5.960;2023-05-20T08:39:44;114.32;;;110.70;;
77612;SDS011;66777;52.282;5.960;2023-05-20T08:42:12;114.25;;;110.45;;
77612;SDS011;66777;52.282;5.960;2023-05-20T08:44:37;105.85;;;102.38;;
77612;SDS011;66777;52.282;5.960;2023-05-20T08:47:05;113.63;;;109.95;;
77612;SDS011;66777;52.282;5.960;2023-05-20T08:49:31;116.65;;;112.90;;
77612;SDS011;66777;52.282;5.960;2023-05-20T08:51:58;80.10;;;77.00;;
77612;SDS011;66777;52.282;5.960;2023-05-20T08:54:25;120.70;;;116.75;;
77612;SDS011;66777;52.282;5.960;2023-05-20T08:57:06;114.18;;;110.32;;
77612;SDS011;66777;52.282;5.960;2023-05-20T08:59:32;119.07;;;115.07;;
77612;SDS011;66777;52.282;5.960;2023-05-20T09:01:58;125.47;;;121.53;;
77612;SDS011;66777;52.282;5.960;2023-05-20T09:04:24;131.07;;;126.82;;
77612;SDS011;66777;52.282;5.960;2023-05-20T09:06:50;122.30;;;117.97;;
77612;SDS011;66777;52.282;5.960;2023-05-20T09:09:16;138.65;;;111.35;;
77612;SDS011;66777;52.282;5.960;2023-05-20T09:11:41;110.43;;;106.28;;
77612;SDS011;66777;52.282;5.960;2023-05-20T09:14:07;228.15;;;222.07;;
77612;SDS011;66777;52.282;5.960;2023-05-20T09:16:33;183.32;;;178.13;;
77612;SDS011;66777;52.282;5.960;2023-05-20T09:18:59;122.10;;;117.88;;
77612;SDS011;66777;52.282;5.960;2023-05-20T09:21:25;180.88;;;175.80;;
77612;SDS011;66777;52.282;5.960;2023-05-20T09:23:52;178.15;;;173.05;;
77612;SDS011;66777;52.282;5.960;2023-05-20T09:26:18;185.32;;;180.02;;
77612;SDS011;66777;52.282;5.960;2023-05-20T09:28:44;186.30;;;180.90;;
77612;SDS011;66777;52.282;5.960;2023-05-20T09:31:12;185.13;;;179.93;;
77612;SDS011;66777;52.282;5.960;2023-05-20T09:33:38;197.55;;;192.07;;
77612;SDS011;66777;52.282;5.960;2023-05-20T09:36:07;201.32;;;195.95;;
77612;SDS011;66777;52.282;5.960;2023-05-20T09:38:37;200.07;;;194.70;;
77612;SDS011;66777;52.282;5.960;2023-05-20T09:41:10;203.95;;;198.27;;
77612;SDS011;66777;52.282;5.960;2023-05-20T09:43:37;210.07;;;204.18;;
77612;SDS011;66777;52.282;5.960;2023-05-20T09:46:04;203.25;;;197.82;;
77612;SDS011;66777;52.282;5.960;2023-05-20T09:48:30;193.90;;;188.40;;
77612;SDS011;66777;52.282;5.960;2023-05-20T09:50:57;195.95;;;190.52;;
77612;SDS011;66777;52.282;5.960;2023-05-20T09:53:26;216.30;;;210.55;;
77612;SDS011;66777;52.282;5.960;2023-05-20T09:55:52;212.57;;;206.57;;
77612;SDS011;66777;52.282;5.960;2023-05-20T09:58:19;207.15;;;201.43;;
77612;SDS011;66777;52.282;5.960;2023-05-20T10:00:45;195.02;;;189.50;;
77612;SDS011;66777;52.282;5.960;2023-05-20T10:03:10;210.77;;;205.05;;
77612;SDS011;66777;52.282;5.960;2023-05-20T10:05:40;196.93;;;191.50;;
77612;SDS011;66777;52.282;5.960;2023-05-20T10:14:19;201.32;;;195.80;;
77612;SDS011;66777;52.282;5.960;2023-05-20T10:22:27;213.15;;;207.48;;
77612;SDS011;66777;52.282;5.960;2023-05-20T10:25:03;199.27;;;193.80;;
77612;SDS011;66777;52.282;5.960;2023-05-20T10:27:41;155.30;;;150.70;;
77612;SDS011;66777;52.282;5.960;2023-05-20T10:30:20;209.57;;;204.02;;
77612;SDS011;66777;52.282;5.960;2023-05-20T10:32:53;209.38;;;203.68;;
77612;SDS011;66777;52.282;5.960;2023-05-20T10:35:24;203.90;;;198.32;;
77612;SDS011;66777;52.282;5.960;2023-05-20T10:37:51;189.10;;;183.80;;
77612;SDS011;66777;52.282;5.960;2023-05-20T10:40:19;188.55;;;183.25;;
77612;SDS011;66777;52.282;5.960;2023-05-20T10:42:46;189.52;;;184.38;;
77612;SDS011;66777;52.282;5.960;2023-05-20T10:45:23;205.35;;;199.93;;
77612;SDS011;66777;52.282;5.960;2023-05-20T10:47:56;202.40;;;196.95;;
77612;SDS011;66777;52.282;5.960;2023-05-20T10:50:40;190.77;;;185.60;;
77612;SDS011;66777;52.282;5.960;2023-05-20T10:53:12;206.10;;;200.52;;
77612;SDS011;66777;52.282;5.960;2023-05-20T10:55:40;209.52;;;203.75;;
77612;SDS011;66777;52.282;5.960;2023-05-20T10:58:11;193.88;;;188.57;;
77612;SDS011;66777;52.282;5.960;2023-05-20T11:00:39;193.55;;;188.15;;
77612;SDS011;66777;52.282;5.960;2023-05-20T11:03:05;153.23;;;148.60;;
77612;SDS011;66777;52.282;5.960;2023-05-20T11:05:32;197.93;;;192.50;;
77612;SDS011;66777;52.282;5.960;2023-05-20T11:08:01;153.15;;;148.27;;
77612;SDS011;66777;52.282;5.960;2023-05-20T11:10:27;195.05;;;189.85;;
77612;SDS011;66777;52.282;5.960;2023-05-20T11:12:54;205.85;;;199.85;;
77612;SDS011;66777;52.282;5.960;2023-05-20T11:15:21;197.93;;;192.52;;
77612;SDS011;66777;52.282;5.960;2023-05-20T11:17:52;199.52;;;193.95;;
77612;SDS011;66777;52.282;5.960;2023-05-20T11:20:19;199.75;;;194.30;;
77612;SDS011;66777;52.282;5.960;2023-05-20T11:22:48;186.45;;;181.23;;
77612;SDS011;66777;52.282;5.960;2023-05-20T11:25:15;154.45;;;149.82;;
77612;SDS011;66777;52.282;5.960;2023-05-20T11:27:42;191.27;;;186.07;;
77612;SDS011;66777;52.282;5.960;2023-05-20T11:30:07;189.93;;;184.82;;
77612;SDS011;66777;52.282;5.960;2023-05-20T11:32:35;214.38;;;208.82;;
77612;SDS011;66777;52.282;5.960;2023-05-20T11:35:01;207.07;;;201.65;;
77612;SDS011;66777;52.282;5.960;2023-05-20T11:37:28;223.77;;;218.00;;
77612;SDS011;66777;52.282;5.960;2023-05-20T11:40:04;210.15;;;204.60;;
77612;SDS011;66777;52.282;5.960;2023-05-20T11:42:34;172.77;;;167.65;;
77612;SDS011;66777;52.282;5.960;2023-05-20T11:45:00;228.15;;;222.27;;
77612;SDS011;66777;52.282;5.960;2023-05-20T11:47:26;168.02;;;163.23;;
77612;SDS011;66777;52.282;5.960;2023-05-20T11:49:52;215.85;;;210.18;;
77612;SDS011;66777;52.282;5.960;2023-05-20T11:52:18;234.80;;;228.63;;
77612;SDS011;66777;52.282;5.960;2023-05-20T11:54:44;248.07;;;241.77;;
77612;SDS011;66777;52.282;5.960;2023-05-20T11:57:15;235.63;;;229.60;;
77612;SDS011;66777;52.282;5.960;2023-05-20T11:59:42;253.13;;;246.65;;
77612;SDS011;66777;52.282;5.960;2023-05-20T12:02:08;235.90;;;229.80;;
77612;SDS011;66777;52.282;5.960;2023-05-20T12:04:34;183.85;;;178.68;;
77612;SDS011;66777;52.282;5.960;2023-05-20T12:07:00;234.60;;;228.60;;
77612;SDS011;66777;52.282;5.960;2023-05-20T12:09:28;226.77;;;220.82;;
77612;SDS011;66777;52.282;5.960;2023-05-20T12:11:54;232.52;;;226.45;;
77612;SDS011;66777;52.282;5.960;2023-05-20T12:14:21;170.45;;;165.65;;
77612;SDS011;66777;52.282;5.960;2023-05-20T12:16:46;233.93;;;227.93;;
77612;SDS011;66777;52.282;5.960;2023-05-20T12:19:12;196.43;;;191.07;;
77612;SDS011;66777;52.282;5.960;2023-05-20T12:21:37;264.77;;;258.15;;
77612;SDS011;66777;52.282;5.960;2023-05-20T12:24:03;250.48;;;244.18;;
77612;SDS011;66777;52.282;5.960;2023-05-20T12:26:30;244.45;;;238.15;;
77612;SDS011;66777;52.282;5.960;2023-05-20T12:28:57;224.88;;;219.10;;
77612;SDS011;66777;52.282;5.960;2023-05-20T12:31:23;283.17;;;275.77;;
77612;SDS011;66777;52.282;5.960;2023-05-20T12:33:50;232.20;;;225.90;;
77612;SDS011;66777;52.282;5.960;2023-05-20T12:36:15;291.73;;;284.52;;
77612;SDS011;66777;52.282;5.960;2023-05-20T12:38:41;311.80;;;304.20;;
77612;SDS011;66777;52.282;5.960;2023-05-20T12:41:07;305.65;;;298.38;;
77612;SDS011;66777;52.282;5.960;2023-05-20T12:43:33;307.58;;;300.20;;
77612;SDS011;66777;52.282;5.960;2023-05-20T12:46:00;263.30;;;256.70;;
77612;SDS011;66777;52.282;5.960;2023-05-20T12:48:25;261.67;;;255.13;;
77612;SDS011;66777;52.282;5.960;2023-05-20T12:50:51;260.42;;;253.82;;
77612;SDS011;66777;52.282;5.960;2023-05-20T12:53:17;267.35;;;260.55;;
77612;SDS011;66777;52.282;5.960;2023-05-20T12:55:42;334.85;;;326.92;;
77612;SDS011;66777;52.282;5.960;2023-05-20T12:58:08;304.40;;;296.98;;
77612;SDS011;66777;52.282;5.960;2023-05-20T13:00:34;313.05;;;305.42;;
77612;SDS011;66777;52.282;5.960;2023-05-20T13:03:00;295.55;;;288.42;;
77612;SDS011;66777;52.282;5.960;2023-05-20T13:05:26;281.38;;;274.35;;
77612;SDS011;66777;52.282;5.960;2023-05-20T13:07:51;257.17;;;250.70;;
77612;SDS011;66777;52.282;5.960;2023-05-20T13:10:17;258.67;;;252.20;;
77612;SDS011;66777;52.282;5.960;2023-05-20T13:12:44;261.90;;;255.40;;
77612;SDS011;66777;52.282;5.960;2023-05-20T13:15:10;314.40;;;306.55;;
77612;SDS011;66777;52.282;5.960;2023-05-20T13:17:38;367.42;;;358.52;;
77612;SDS011;66777;52.282;5.960;2023-05-20T13:20:04;412.13;;;401.98;;
77612;SDS011;66777;52.282;5.960;2023-05-20T13:22:31;422.92;;;412.52;;
77612;SDS011;66777;52.282;5.960;2023-05-20T13:24:57;417.15;;;406.85;;
77612;SDS011;66777;52.282;5.960;2023-05-20T13:27:22;401.45;;;391.42;;
77612;SDS011;66777;52.282;5.960;2023-05-20T13:29:48;414.08;;;403.83;;
77612;SDS011;66777;52.282;5.960;2023-05-20T13:32:14;440.58;;;429.45;;
77612;SDS011;66777;52.282;5.960;2023-05-20T13:34:39;456.10;;;444.42;;
77612;SDS011;66777;52.282;5.960;2023-05-20T13:37:05;458.48;;;446.27;;
77612;SDS011;66777;52.282;5.960;2023-05-20T13:39:31;460.92;;;448.88;;
77612;SDS011;66777;52.282;5.960;2023-05-20T13:41:57;485.85;;;472.73;;
77612;SDS011;66777;52.282;5.960;2023-05-20T13:44:22;515.55;;;501.58;;
77612;SDS011;66777;52.282;5.960;2023-05-20T13:46:48;508.85;;;495.15;;
77612;SDS011;66777;52.282;5.960;2023-05-20T13:49:13;484.48;;;471.42;;
77612;SDS011;66777;52.282;5.960;2023-05-20T13:51:39;477.58;;;465.33;;
77612;SDS011;66777;52.282;5.960;2023-05-20T13:54:05;470.10;;;458.17;;
77612;SDS011;66777;52.282;5.960;2023-05-20T13:56:30;442.85;;;431.85;;
77612;SDS011;66777;52.282;5.960;2023-05-20T13:58:56;422.10;;;411.80;;
77612;SDS011;66777;52.282;5.960;2023-05-20T14:01:22;405.77;;;396.00;;
77612;SDS011;66777;52.282;5.960;2023-05-20T14:03:47;385.35;;;375.90;;
77612;SDS011;66777;52.282;5.960;2023-05-20T14:06:13;367.77;;;358.75;;
77612;SDS011;66777;52.282;5.960;2023-05-20T14:08:42;350.20;;;341.70;;
77612;SDS011;66777;52.282;5.960;2023-05-20T14:11:11;333.35;;;325.35;;
77612;SDS011;66777;52.282;5.960;2023-05-20T14:13:36;357.77;;;349.20;;
77612;SDS011;66777;52.282;5.960;2023-05-20T14:16:02;339.52;;;331.30;;
77612;SDS011;66777;52.282;5.960;2023-05-20T14:18:27;388.33;;;379.00;;